createdAt,value
2019-02-05T00:01:40.801Z,18.93
2019-02-05T00:03:57.646Z,18.87
2019-02-05T00:06:13.706Z,17.37
2019-02-05T00:08:30.182Z,21.03
2019-02-05T00:10:46.467Z,18.30
2019-02-05T00:13:02.873Z,19.00
2019-02-05T00:15:29.943Z,19.23
2019-02-05T00:17:37.865Z,18.13
2019-02-05T00:19:54.319Z,19.83
2019-02-05T00:22:11.058Z,17.47
2019-02-05T00:24:27.970Z,22.47
2019-02-05T00:26:47.017Z,18.00
2019-02-05T00:29:03.810Z,20.30
2019-02-05T00:33:54.916Z,21.17
2019-02-05T00:36:11.565Z,20.43
2019-02-05T00:38:32.490Z,18.80
2019-02-05T00:40:51.019Z,18.60
2019-02-05T00:43:08.320Z,20.30
2019-02-05T00:46:19.402Z,19.57
2019-02-05T00:48:03.891Z,21.63
2019-02-05T00:52:53.880Z,20.57
2019-02-05T00:57:48.461Z,19.13
2019-02-05T01:00:06.398Z,21.40
2019-02-05T01:02:28.869Z,22.40
2019-02-05T01:04:50.636Z,21.50
2019-02-05T01:07:09.390Z,23.20
2019-02-05T01:09:32.394Z,17.80
2019-02-05T01:11:54.672Z,22.10
2019-02-05T01:14:12.977Z,22.30
2019-02-05T01:16:32.711Z,21.57
2019-02-05T01:18:49.924Z,21.53
2019-02-05T01:21:07.912Z,26.20
2019-02-05T01:23:25.265Z,20.73
2019-02-05T01:28:04.371Z,24.07
2019-02-05T01:30:54.561Z,20.20
2019-02-05T01:32:41.928Z,23.73
2019-02-05T01:35:00.098Z,23.70
2019-02-05T01:37:23.221Z,20.13
2019-02-05T01:39:44.350Z,21.77
2019-02-05T01:42:00.131Z,20.90
2019-02-05T01:44:19.305Z,22.20
2019-02-05T01:46:36.042Z,23.83
2019-02-05T01:52:04.567Z,22.23
2019-02-05T01:54:27.974Z,22.83
2019-02-05T01:57:10.454Z,21.60
2019-02-05T01:59:26.498Z,21.30
2019-02-05T02:01:51.002Z,20.67
2019-02-05T02:04:14.742Z,20.73
2019-02-05T02:06:38.346Z,22.20
2019-02-05T02:08:55.947Z,24.73
2019-02-05T02:11:12.301Z,20.47
2019-02-05T02:13:28.785Z,23.47
2019-02-05T02:15:47.147Z,25.13
2019-02-05T02:18:04.761Z,25.07
2019-02-05T02:20:20.938Z,20.83
2019-02-05T02:22:37.463Z,24.77
2019-02-05T02:24:54.015Z,24.73
2019-02-05T02:27:17.666Z,20.80
2019-02-05T02:29:56.520Z,22.70
2019-02-05T02:32:06.915Z,22.93
2019-02-05T02:34:24.327Z,24.40
2019-02-05T02:36:45.394Z,23.27
2019-02-05T02:39:01.851Z,22.43
2019-02-05T02:41:25.762Z,23.93
2019-02-05T02:46:08.534Z,22.80
2019-02-05T02:48:37.186Z,22.43
2019-02-05T02:50:59.083Z,20.80
2019-02-05T02:53:17.936Z,24.17
2019-02-05T02:55:36.882Z,22.43
2019-02-05T02:58:03.004Z,20.23
2019-02-05T03:00:23.608Z,21.80
2019-02-05T03:02:40.927Z,25.93
2019-02-05T03:04:57.479Z,22.50
2019-02-05T03:07:14.762Z,24.70
2019-02-05T03:09:36.125Z,24.80
2019-02-05T03:11:57.062Z,23.57
2019-02-05T03:14:14.866Z,21.90
2019-02-05T03:16:32.404Z,24.07
2019-02-05T03:18:52.432Z,22.77
2019-02-05T03:21:12.697Z,24.63
2019-02-05T03:23:43.149Z,24.57
2019-02-05T03:25:50.257Z,24.00
2019-02-05T03:28:24.675Z,24.33
2019-02-05T03:30:40.922Z,21.10
2019-02-05T03:32:58.490Z,24.33
2019-02-05T03:35:16.527Z,22.03
2019-02-05T03:37:41.137Z,21.93
2019-02-05T03:39:58.692Z,23.17
2019-02-05T03:42:17.640Z,26.83
2019-02-05T03:44:35.332Z,22.83
2019-02-05T03:47:01.479Z,24.77
2019-02-05T03:49:47.586Z,22.80
2019-02-05T03:52:09.890Z,25.37
2019-02-05T03:54:29.155Z,26.90
2019-02-05T03:56:46.209Z,23.67
2019-02-05T03:59:06.827Z,22.13
2019-02-05T04:04:24.589Z,25.53
2019-02-05T04:07:11.322Z,24.53
2019-02-05T04:09:30.993Z,21.20
2019-02-05T04:11:50.736Z,22.00
2019-02-05T04:14:11.017Z,26.20
2019-02-05T04:16:28.684Z,23.17
2019-02-05T04:18:46.607Z,24.07
2019-02-05T04:21:06.114Z,21.27
2019-02-05T04:23:22.509Z,23.63
2019-02-05T04:25:44.903Z,25.77
2019-02-05T04:28:01.925Z,23.60
2019-02-05T04:30:27.121Z,21.90
2019-02-05T04:32:43.592Z,24.20
2019-02-05T04:34:59.625Z,24.13
2019-02-05T04:37:18.933Z,26.57
2019-02-05T04:39:36.232Z,23.93
2019-02-05T04:41:52.618Z,23.63
2019-02-05T04:44:09.290Z,22.90
2019-02-05T04:46:25.789Z,21.53
2019-02-05T04:48:43.622Z,23.50
2019-02-05T04:51:35.803Z,22.83
2019-02-05T04:54:05.950Z,24.07
2019-02-05T04:56:22.643Z,24.30
2019-02-05T04:58:38.905Z,21.67
2019-02-05T05:00:55.657Z,23.77
2019-02-05T05:03:13.306Z,24.23
2019-02-05T05:05:29.440Z,23.47
2019-02-05T05:07:45.842Z,28.77
2019-02-05T05:10:01.920Z,23.67
2019-02-05T05:12:18.502Z,22.60
2019-02-05T05:14:34.962Z,22.40
2019-02-05T05:16:51.621Z,23.57
2019-02-05T05:19:08.162Z,23.37
2019-02-05T05:21:24.655Z,24.37
2019-02-05T05:23:40.992Z,23.30
2019-02-05T05:25:47.820Z,24.43
2019-02-05T05:28:11.495Z,24.07
2019-02-05T05:30:29.276Z,23.43
2019-02-05T05:32:52.776Z,24.97
2019-02-05T05:35:09.113Z,21.67
2019-02-05T05:37:26.300Z,24.37
2019-02-05T05:39:44.729Z,25.03
2019-02-05T05:42:03.605Z,26.80
2019-02-05T05:44:19.986Z,24.87
2019-02-05T05:46:38.942Z,24.10
2019-02-05T05:48:46.834Z,23.80
2019-02-05T05:51:13.478Z,25.07
2019-02-05T05:56:15.039Z,24.87
2019-02-05T05:58:30.925Z,22.80
2019-02-05T06:00:49.949Z,27.53
2019-02-05T06:03:06.392Z,24.37
2019-02-05T06:08:06.613Z,25.93
2019-02-05T06:10:23.471Z,23.97
2019-02-05T06:12:39.983Z,24.30
2019-02-05T06:14:57.346Z,24.83
2019-02-05T06:17:13.702Z,27.40
2019-02-05T06:19:30.187Z,24.60
2019-02-05T06:21:49.978Z,26.27
2019-02-05T06:24:13.952Z,22.27
2019-02-05T06:26:30.353Z,25.30
2019-02-05T06:28:51.022Z,26.20
2019-02-05T06:33:28.192Z,24.17
2019-02-05T06:35:53.112Z,24.63
2019-02-05T06:38:09.513Z,23.70
2019-02-05T06:40:25.670Z,25.40
2019-02-05T06:45:02.109Z,26.40
2019-02-05T06:47:18.614Z,25.37
2019-02-05T06:49:34.713Z,24.93
2019-02-05T06:51:58.351Z,23.70
2019-02-05T06:54:43.939Z,25.73
2019-02-05T06:56:59.898Z,24.70
2019-02-05T06:59:17.892Z,25.47
2019-02-05T07:01:34.046Z,24.53
2019-02-05T07:03:50.450Z,28.20
2019-02-05T07:06:06.822Z,24.97
2019-02-05T07:08:22.740Z,24.20
2019-02-05T07:10:41.011Z,23.93
2019-02-05T07:12:48.628Z,26.40
2019-02-05T07:14:56.109Z,24.90
2019-02-05T07:17:20.179Z,25.53
2019-02-05T07:22:19.196Z,26.43
2019-02-05T07:24:35.224Z,27.80
2019-02-05T07:26:54.102Z,25.50
2019-02-05T07:29:11.597Z,26.10
2019-02-05T07:31:39.670Z,23.43
2019-02-05T07:33:54.785Z,23.53
2019-02-05T07:36:18.458Z,26.03
2019-02-05T07:38:34.760Z,24.23
2019-02-05T07:40:51.328Z,22.43
2019-02-05T07:43:07.527Z,27.23
2019-02-05T07:45:25.813Z,27.87
2019-02-05T07:47:42.086Z,26.83
2019-02-05T07:49:58.442Z,25.40
2019-02-05T07:52:20.563Z,28.50
2019-02-05T07:54:39.471Z,31.07
2019-02-05T07:56:55.409Z,25.13
2019-02-05T07:59:33.004Z,23.80
2019-02-05T08:01:55.391Z,24.30
2019-02-05T08:04:20.593Z,27.93
2019-02-05T08:06:44.239Z,26.97
2019-02-05T08:09:08.258Z,35.37
2019-02-05T08:11:24.589Z,26.17
2019-02-05T08:13:46.747Z,25.37
2019-02-05T08:15:51.847Z,23.77
2019-02-05T08:18:15.591Z,24.27
2019-02-05T08:21:00.917Z,25.20
2019-02-05T08:23:17.114Z,26.10
2019-02-05T08:25:33.316Z,24.07
2019-02-05T08:27:49.879Z,24.73
2019-02-05T08:30:12.662Z,22.93
2019-02-05T08:32:31.133Z,26.17
2019-02-05T08:34:49.457Z,24.37
2019-02-05T08:37:05.841Z,24.13
2019-02-05T08:39:24.395Z,24.60
2019-02-05T08:41:40.737Z,23.93
2019-02-05T08:43:45.698Z,23.80
2019-02-05T08:46:09.543Z,23.33
2019-02-05T08:48:33.601Z,28.93
2019-02-05T08:50:51.250Z,25.13
2019-02-05T08:53:08.003Z,25.90
2019-02-05T08:55:32.195Z,24.07
2019-02-05T08:57:48.625Z,21.77
2019-02-05T09:00:07.637Z,25.40
2019-02-05T09:02:13.079Z,26.90
2019-02-05T09:04:37.032Z,26.13
2019-02-05T09:06:41.981Z,25.53
2019-02-05T09:08:50.430Z,22.83
2019-02-05T09:13:39.770Z,26.10
2019-02-05T09:16:03.978Z,23.90
2019-02-05T09:18:27.915Z,26.27
2019-02-05T09:20:52.012Z,32.67
2019-02-05T09:23:15.795Z,26.07
2019-02-05T09:25:39.827Z,27.50
2019-02-05T09:27:56.230Z,24.43
2019-02-05T09:30:16.726Z,25.47
2019-02-05T09:32:35.070Z,24.10
2019-02-05T09:34:49.886Z,25.07
2019-02-05T09:37:08.789Z,26.27
2019-02-05T09:39:16.237Z,24.17
2019-02-05T09:42:12.243Z,26.60
2019-02-05T09:44:25.710Z,24.10
2019-02-05T09:46:42.147Z,25.93
2019-02-05T09:51:34.938Z,28.03
2019-02-05T09:54:01.060Z,23.67
2019-02-05T09:56:24.926Z,27.27
2019-02-05T09:58:41.548Z,24.20
2019-02-05T10:00:59.775Z,23.20
2019-02-05T10:03:16.708Z,24.60
2019-02-05T10:05:32.825Z,23.63
2019-02-05T10:07:52.321Z,24.20
2019-02-05T10:09:57.467Z,24.33
2019-02-05T10:15:00.068Z,24.53
2019-02-05T10:17:18.141Z,24.53
2019-02-05T10:19:35.094Z,28.43
2019-02-05T10:21:54.332Z,25.27
2019-02-05T10:27:00.505Z,23.27
2019-02-05T10:29:11.864Z,25.37
2019-02-05T10:31:31.525Z,22.97
2019-02-05T10:33:55.371Z,25.40
2019-02-05T10:36:08.138Z,25.07
2019-02-05T10:38:18.522Z,25.97
2019-02-05T10:40:42.672Z,24.37
2019-02-05T10:42:47.966Z,25.63
2019-02-05T10:45:16.880Z,22.50
2019-02-05T10:47:33.631Z,24.70
2019-02-05T10:49:52.255Z,24.90
2019-02-05T10:52:08.366Z,23.60
2019-02-05T10:54:25.180Z,26.80
2019-02-05T10:56:49.530Z,23.37
2019-02-05T10:59:13.408Z,21.57
2019-02-05T11:04:08.266Z,24.27
2019-02-05T11:06:24.709Z,23.80
2019-02-05T11:08:42.344Z,23.23
2019-02-05T11:13:14.024Z,23.37
2019-02-05T11:21:21.420Z,24.23
2019-02-05T11:26:10.929Z,23.87
2019-02-05T11:28:16.050Z,24.77
2019-02-05T11:31:01.521Z,26.67
2019-02-05T11:33:17.809Z,24.00
2019-02-05T11:40:44.130Z,26.33
2019-02-05T11:43:02.974Z,27.83
2019-02-05T11:45:19.209Z,26.50
2019-02-05T11:47:36.874Z,24.93
2019-02-05T11:50:11.270Z,24.40
2019-02-05T11:52:21.687Z,26.83
2019-02-05T11:54:41.232Z,21.93
2019-02-05T11:59:57.582Z,23.10
2019-02-05T12:02:13.852Z,24.77
2019-02-05T12:04:33.587Z,22.43
2019-02-05T12:06:38.482Z,23.17
2019-02-05T12:09:03.007Z,20.57
2019-02-05T12:11:26.899Z,21.63
2019-02-05T12:16:06.967Z,22.27
2019-02-05T12:18:23.414Z,24.07
2019-02-05T12:20:39.520Z,21.53
2019-02-05T12:22:57.027Z,21.77
2019-02-05T12:27:40.070Z,22.77
2019-02-05T12:32:38.837Z,24.70
2019-02-05T12:34:55.164Z,25.87
2019-02-05T12:37:14.651Z,21.87
2019-02-05T12:39:34.252Z,23.73
2019-02-05T12:41:58.116Z,26.13
2019-02-05T12:44:24.406Z,24.97
2019-02-05T12:46:48.628Z,23.13
2019-02-05T12:49:14.760Z,22.73
2019-02-05T12:51:30.686Z,22.17
2019-02-05T12:53:46.695Z,28.67
2019-02-05T12:56:12.754Z,22.23
2019-02-05T13:03:17.901Z,23.37
2019-02-05T13:08:05.299Z,21.33
2019-02-05T13:10:20.316Z,22.50
2019-02-05T13:12:40.365Z,25.23
2019-02-05T13:15:31.729Z,22.47
2019-02-05T13:17:28.399Z,23.83
2019-02-05T13:19:51.024Z,23.87
2019-02-05T13:22:15.176Z,26.17
2019-02-05T13:24:31.481Z,22.93
2019-02-05T13:26:51.975Z,24.03
2019-02-05T13:29:32.553Z,23.33
2019-02-05T13:31:36.072Z,22.57
2019-02-05T13:33:53.925Z,23.57
2019-02-05T13:36:10.870Z,24.80
2019-02-05T13:38:28.329Z,20.70
2019-02-05T13:40:45.826Z,24.63
2019-02-05T13:43:10.050Z,23.77
2019-02-05T13:48:00.035Z,22.57
2019-02-05T13:50:32.117Z,25.10
2019-02-05T13:52:27.480Z,26.47
2019-02-05T13:54:32.766Z,24.70
2019-02-05T13:56:56.780Z,26.60
2019-02-05T14:01:59.943Z,20.23
2019-02-05T14:04:05.425Z,23.03
2019-02-05T14:06:31.270Z,23.30
2019-02-05T14:11:13.673Z,24.23
2019-02-05T14:13:30.535Z,23.20
2019-02-05T14:15:56.393Z,24.40
2019-02-05T14:18:22.499Z,28.70
2019-02-05T14:20:38.804Z,26.07
2019-02-05T14:22:52.851Z,21.93
2019-02-05T14:24:58.097Z,23.83
2019-02-05T14:30:40.558Z,25.40
2019-02-05T14:32:45.816Z,24.83
2019-02-05T14:35:11.355Z,24.00
2019-02-05T14:39:56.882Z,25.13
2019-02-05T14:42:02.130Z,25.83
2019-02-05T14:44:26.567Z,22.83
2019-02-05T14:46:50.457Z,23.87
2019-02-05T14:49:08.636Z,23.63
2019-02-05T14:51:25.194Z,23.93
2019-02-05T14:53:47.257Z,21.90
2019-02-05T14:56:07.288Z,24.20
2019-02-05T14:58:25.652Z,21.83
2019-02-05T15:03:25.105Z,23.10
2019-02-05T15:05:49.260Z,20.23
2019-02-05T15:08:07.313Z,22.70
2019-02-05T15:10:37.439Z,20.97
2019-02-05T15:13:01.733Z,20.90
2019-02-05T15:15:21.660Z,24.23
2019-02-05T15:17:41.770Z,22.77
2019-02-05T15:19:59.379Z,28.40
2019-02-05T15:22:19.445Z,25.70
2019-02-05T15:24:38.897Z,26.37
2019-02-05T15:26:59.884Z,25.40
2019-02-05T15:29:16.860Z,25.07
2019-02-05T15:31:33.175Z,27.73
2019-02-05T15:34:08.393Z,28.67
2019-02-05T15:36:32.206Z,29.53
2019-02-05T15:39:33.720Z,32.70
2019-02-05T15:41:57.987Z,31.77
2019-02-05T15:44:35.562Z,27.30
2019-02-05T15:46:43.812Z,30.60
2019-02-05T15:49:00.063Z,23.87
2019-02-05T15:54:10.564Z,30.97
2019-02-05T16:01:46.966Z,25.53
2019-02-05T16:04:03.450Z,28.13
2019-02-05T16:06:08.489Z,26.13
2019-02-05T16:08:44.963Z,26.33
2019-02-05T16:11:17.011Z,26.73
2019-02-05T16:13:33.039Z,27.17
2019-02-05T16:15:49.349Z,27.80
2019-02-05T16:18:05.832Z,26.10
2019-02-05T16:20:23.971Z,25.33
2019-02-05T16:22:40.807Z,25.10
2019-02-05T16:27:42.154Z,31.83
2019-02-05T16:29:59.959Z,25.90
2019-02-05T16:32:27.822Z,22.70
2019-02-05T16:35:12.327Z,25.07
2019-02-05T16:37:28.314Z,36.27
2019-02-05T16:39:51.786Z,28.13
2019-02-05T16:42:15.512Z,25.57
2019-02-05T16:44:36.748Z,31.17
2019-02-05T16:46:56.925Z,27.70
2019-02-05T16:49:13.966Z,25.27
2019-02-05T16:51:30.152Z,28.23
2019-02-05T16:53:46.543Z,26.57
2019-02-05T16:56:29.044Z,24.70
2019-02-05T17:01:14.600Z,24.57
2019-02-05T17:03:30.766Z,27.47
2019-02-05T17:05:36.737Z,23.83
2019-02-05T17:10:29.124Z,25.80
2019-02-05T17:12:46.452Z,27.43
2019-02-05T17:15:08.400Z,28.63
2019-02-05T17:17:28.660Z,25.87
2019-02-05T17:19:44.600Z,25.73
2019-02-05T17:22:03.002Z,28.43
2019-02-05T17:24:11.742Z,29.70
2019-02-05T17:29:09.434Z,35.00
2019-02-05T17:31:36.050Z,22.27
2019-02-05T17:34:01.939Z,32.07
2019-02-05T17:36:18.518Z,24.80
2019-02-05T17:38:38.354Z,26.03
2019-02-05T17:40:41.282Z,29.10
2019-02-05T17:43:23.804Z,30.40
2019-02-05T17:45:47.903Z,24.83
2019-02-05T17:47:54.767Z,27.73
2019-02-05T17:53:04.013Z,23.97
2019-02-05T17:57:42.965Z,27.27
2019-02-05T18:00:15.988Z,29.00
2019-02-05T18:02:39.645Z,29.97
2019-02-05T18:04:57.363Z,22.83
2019-02-05T18:07:14.641Z,33.47
2019-02-05T18:09:31.003Z,35.40
2019-02-05T18:11:55.034Z,26.93
2019-02-05T18:14:37.457Z,25.73
2019-02-05T18:17:54.972Z,28.37
2019-02-05T18:19:52.305Z,24.03
2019-02-05T18:22:12.754Z,27.30
2019-02-05T18:24:28.905Z,26.57
2019-02-05T18:26:47.673Z,26.87
2019-02-05T18:29:03.828Z,26.53
2019-02-05T18:31:21.115Z,29.50
2019-02-05T18:33:30.985Z,26.47
2019-02-05T18:38:29.634Z,27.87
2019-02-05T18:40:34.212Z,29.80
2019-02-05T18:43:23.113Z,27.10
2019-02-05T18:45:33.915Z,29.90
2019-02-05T18:48:05.539Z,31.13
2019-02-05T18:50:32.227Z,25.17
2019-02-05T18:52:55.875Z,28.63
2019-02-05T18:55:53.755Z,30.30
2019-02-05T19:00:57.377Z,27.73
2019-02-05T19:03:14.277Z,28.33
2019-02-05T19:05:20.653Z,28.67
2019-02-05T19:08:00.386Z,25.40
2019-02-05T19:12:48.156Z,29.17
2019-02-05T19:15:06.786Z,24.97
2019-02-05T19:17:11.343Z,29.27
2019-02-05T19:19:55.917Z,25.30
2019-02-05T19:22:21.836Z,39.20
2019-02-05T19:27:20.803Z,31.47
2019-02-05T19:29:44.477Z,37.70
2019-02-05T19:32:00.744Z,46.47
2019-02-05T19:34:25.708Z,46.27
2019-02-05T19:39:34.708Z,26.43
2019-02-05T19:42:01.301Z,29.70
2019-02-05T19:44:07.538Z,26.10
2019-02-05T19:46:31.315Z,27.27
2019-02-05T19:51:33.097Z,28.00
2019-02-05T19:53:49.301Z,28.87
2019-02-05T19:56:07.338Z,29.40
2019-02-05T19:58:25.667Z,28.77
2019-02-05T20:00:47.715Z,27.53
2019-02-05T20:03:04.093Z,32.00
2019-02-05T20:05:20.345Z,30.37
2019-02-05T20:07:29.647Z,30.90
2019-02-05T20:09:53.251Z,31.33
2019-02-05T20:12:23.940Z,34.57
2019-02-05T20:14:40.025Z,32.23
2019-02-05T20:16:56.632Z,31.77
2019-02-05T20:19:15.886Z,31.53
2019-02-05T20:21:32.208Z,34.77
2019-02-05T20:23:51.083Z,37.13
2019-02-05T20:26:11.551Z,33.83
2019-02-05T20:30:43.695Z,33.27
2019-02-05T20:32:56.977Z,34.27
2019-02-05T20:35:26.869Z,28.63
2019-02-05T20:37:31.261Z,28.70
2019-02-05T20:40:16.746Z,33.50
2019-02-05T20:42:40.450Z,31.93
2019-02-05T20:44:57.945Z,32.27
2019-02-05T20:47:42.434Z,30.07
2019-02-05T20:50:40.459Z,26.87
2019-02-05T20:52:51.686Z,28.30
2019-02-05T20:55:25.511Z,29.87
2019-02-05T20:57:30.492Z,28.97
2019-02-05T20:59:49.872Z,27.03
2019-02-05T21:01:56.200Z,29.83
2019-02-05T21:04:19.803Z,31.43
2019-02-05T21:06:30.806Z,27.83
2019-02-05T21:09:06.162Z,30.20
2019-02-05T21:11:12.507Z,29.83
2019-02-05T21:15:44.353Z,27.70
2019-02-05T21:18:00.623Z,31.07
2019-02-05T21:20:29.173Z,27.53
2019-02-05T21:22:53.309Z,26.47
2019-02-05T21:25:13.963Z,30.20
2019-02-05T21:27:52.584Z,28.17
2019-02-05T21:32:43.350Z,25.80
2019-02-05T21:35:06.010Z,29.67
2019-02-05T21:37:08.182Z,32.10
2019-02-05T21:39:26.474Z,29.70
2019-02-05T21:41:46.145Z,33.53
2019-02-05T21:44:03.564Z,31.43
2019-02-05T21:46:19.613Z,29.50
2019-02-05T21:48:38.895Z,28.93
2019-02-05T21:50:59.245Z,32.90
2019-02-05T21:53:25.075Z,31.57
2019-02-05T21:55:48.683Z,28.93
2019-02-05T21:58:04.974Z,31.77
2019-02-05T22:00:23.500Z,28.13
2019-02-05T22:02:41.185Z,29.53
2019-02-05T22:04:57.322Z,31.67
2019-02-05T22:07:13.558Z,26.13
2019-02-05T22:09:29.702Z,32.07
2019-02-05T22:11:46.314Z,30.33
2019-02-05T22:14:08.791Z,30.13
2019-02-05T22:16:13.660Z,36.00
2019-02-05T22:18:18.174Z,27.70
2019-02-05T22:23:16.830Z,28.27
2019-02-05T22:25:33.428Z,34.23
2019-02-05T22:27:52.199Z,33.07
2019-02-05T22:30:09.214Z,28.57
2019-02-05T22:32:25.451Z,29.33
2019-02-05T22:34:42.091Z,29.47
2019-02-05T22:37:03.722Z,27.73
2019-02-05T22:39:21.002Z,25.37
2019-02-05T22:41:37.416Z,29.70
2019-02-05T22:43:53.749Z,28.57
2019-02-05T22:46:10.202Z,27.77
2019-02-05T22:50:57.668Z,27.50
2019-02-05T22:53:13.895Z,24.13
2019-02-05T22:55:30.426Z,23.83
2019-02-05T22:57:47.001Z,27.13
2019-02-05T23:00:03.240Z,27.43
2019-02-05T23:02:08.103Z,25.20
2019-02-05T23:04:53.334Z,25.57
2019-02-05T23:07:12.661Z,27.83
2019-02-05T23:09:29.318Z,26.37
2019-02-05T23:11:45.705Z,26.17
2019-02-05T23:14:01.909Z,28.87
2019-02-05T23:16:18.780Z,25.03
2019-02-05T23:18:34.924Z,26.57
2019-02-05T23:20:54.045Z,24.70
2019-02-05T23:23:10.581Z,28.20
2019-02-05T23:25:26.586Z,24.67
2019-02-05T23:27:45.656Z,24.13
2019-02-05T23:30:02.044Z,24.93
2019-02-05T23:32:08.647Z,28.40
2019-02-05T23:35:01.802Z,26.67
2019-02-05T23:37:17.105Z,23.73
2019-02-05T23:39:42.691Z,24.40
2019-02-05T23:41:59.377Z,28.87
2019-02-05T23:44:16.301Z,23.47
2019-02-05T23:46:32.397Z,25.20
2019-02-05T23:48:49.062Z,23.77
2019-02-05T23:51:05.130Z,22.53
2019-02-05T23:55:38.362Z,23.07
2019-02-05T23:57:54.325Z,25.40
